Time;durP1;ratioP1;P1;durP2;ratioP2;P2;SDS_P1;SDS_P2;PMS_P1;PMS_P2;Temp;Humidity;BMP_temperature;BMP_pressure;BME280_temperature;BME280_humidity;BME280_pressure;Samples;Min_cycle;Max_cycle;Signal;HPM_P1;HPM_P2
2022/04/19 00:00:07;;;;;;;7.93;4.53;;;12.70;99.90;;;;;;5005457;28;20040;-70
2022/04/19 00:02:33;;;;;;;8.70;4.53;;;12.70;99.90;;;;;;5008319;28;20026;-70
2022/04/19 00:04:59;;;;;;;5.88;4.18;;;12.60;99.90;;;;;;5009436;28;20022;-71
2022/04/19 00:07:27;;;;;;;9.10;4.65;;;12.60;99.90;;;;;;5004116;28;20053;-71
2022/04/19 00:09:53;;;;;;;10.75;4.65;;;12.60;99.90;;;;;;5008030;28;20110;-71
2022/04/19 00:12:19;;;;;;;9.32;4.85;;;12.60;99.90;;;;;;5008792;28;20501;-71
2022/04/19 00:14:47;;;;;;;6.45;4.32;;;12.50;99.90;;;;;;5000565;28;20079;-70
2022/04/19 00:17:13;;;;;;;4.95;4.43;;;12.50;99.90;;;;;;4997483;28;20034;-70
2022/04/19 00:19:39;;;;;;;9.23;4.75;;;12.40;99.90;;;;;;5007276;28;20022;-71
2022/04/19 00:22:05;;;;;;;7.63;4.18;;;12.40;99.90;;;;;;5007359;28;20034;-70
2022/04/19 00:24:31;;;;;;;8.82;3.42;;;12.40;99.90;;;;;;5007356;28;20041;-70
2022/04/19 00:26:56;;;;;;;4.68;3.70;;;12.40;99.90;;;;;;5007109;28;20057;-71
2022/04/19 00:29:22;;;;;;;5.65;4.00;;;12.40;99.90;;;;;;5006653;28;20386;-71
2022/04/19 00:31:48;;;;;;;6.82;4.97;;;12.30;99.90;;;;;;5006358;28;20045;-71
2022/04/19 00:34:15;;;;;;;5.57;3.97;;;12.30;99.90;;;;;;5008340;28;20486;-72
2022/04/19 00:36:40;;;;;;;5.50;3.80;;;12.40;99.90;;;;;;5007912;28;20026;-71
2022/04/19 00:39:06;;;;;;;3.78;3.22;;;12.30;99.90;;;;;;5008996;28;20104;-71
2022/04/19 00:41:32;;;;;;;7.85;4.70;;;12.30;99.90;;;;;;5009876;28;20117;-71
2022/04/19 00:43:57;;;;;;;4.70;3.60;;;12.30;99.90;;;;;;5002078;28;20026;-71
2022/04/19 00:46:24;;;;;;;6.45;4.78;;;12.20;99.90;;;;;;5007134;28;20030;-70
2022/04/19 00:48:52;;;;;;;6.32;3.72;;;12.20;99.90;;;;;;5006756;28;20030;-70
2022/04/19 00:51:19;;;;;;;5.00;3.80;;;12.30;99.90;;;;;;5008278;28;20022;-72
2022/04/19 00:53:47;;;;;;;4.88;3.53;;;12.20;99.90;;;;;;5010211;28;20042;-70
2022/04/19 00:56:12;;;;;;;6.10;4.00;;;12.20;99.90;;;;;;5005905;28;20442;-70
2022/04/19 00:58:38;;;;;;;4.63;4.20;;;12.20;99.90;;;;;;5008354;28;20026;-71
2022/04/19 01:01:04;;;;;;;6.68;3.95;;;12.20;99.90;;;;;;5008161;28;20080;-71
2022/04/19 01:03:30;;;;;;;5.65;4.07;;;12.20;99.90;;;;;;5010439;28;20022;-71
2022/04/19 01:05:56;;;;;;;8.82;4.00;;;12.20;99.90;;;;;;5023189;28;20096;-72
2022/04/19 01:08:23;;;;;;;5.72;3.95;;;12.10;99.90;;;;;;5013429;28;20435;-70
2022/04/19 01:10:49;;;;;;;5.85;3.58;;;12.20;99.90;;;;;;5012014;28;20062;-72
2022/04/19 01:13:18;;;;;;;9.73;4.07;;;12.10;99.90;;;;;;5012406;28;20029;-69
2022/04/19 01:15:48;;;;;;;4.60;4.13;;;12.10;99.90;;;;;;5011417;28;20014;-70
2022/04/19 01:18:20;;;;;;;6.75;3.22;;;12.00;99.90;;;;;;5006713;28;20058;-71
2022/04/19 01:20:48;;;;;;;5.70;3.95;;;11.90;99.90;;;;;;5006687;28;20068;-72
2022/04/19 01:23:15;;;;;;;5.80;4.68;;;11.80;99.90;;;;;;5013340;28;20026;-72
2022/04/19 01:25:41;;;;;;;6.32;3.22;;;11.80;99.90;;;;;;5009980;28;20441;-71
2022/04/19 01:28:06;;;;;;;3.80;3.42;;;11.70;99.90;;;;;;5011016;28;20030;-71
2022/04/19 01:30:35;;;;;;;5.95;3.60;;;11.70;99.90;;;;;;5011962;28;20104;-71
2022/04/19 01:33:02;;;;;;;4.55;3.35;;;11.70;99.90;;;;;;5009012;28;20029;-71
2022/04/19 01:35:28;;;;;;;7.28;4.32;;;11.70;99.90;;;;;;5012552;28;20014;-72
2022/04/19 01:37:53;;;;;;;7.50;3.42;;;11.70;99.90;;;;;;5008140;28;20018;-72
2022/04/19 01:40:20;;;;;;;8.88;4.43;;;11.80;99.90;;;;;;5012103;28;20103;-70
2022/04/19 01:42:49;;;;;;;6.38;4.05;;;11.70;99.90;;;;;;5012852;28;20026;-72
2022/04/19 01:45:20;;;;;;;3.50;3.15;;;11.70;99.90;;;;;;5012096;28;20030;-71
2022/04/19 01:47:46;;;;;;;7.63;3.83;;;11.80;99.90;;;;;;5004854;28;20552;-70
2022/04/19 01:50:14;;;;;;;4.38;2.95;;;11.80;99.90;;;;;;5005199;28;20049;-71
2022/04/19 01:52:41;;;;;;;4.88;3.15;;;11.70;99.90;;;;;;5005708;28;20094;-70
2022/04/19 01:55:13;;;;;;;6.28;3.35;;;11.70;99.90;;;;;;5004428;28;20148;-71
2022/04/19 01:57:41;;;;;;;;;;;11.70;99.90;;;;;;5005105;28;20164;-71
2022/04/19 02:00:07;;;;;;;4.40;2.97;;;11.80;99.90;;;;;;5005415;28;19913;-70
2022/04/19 02:02:33;;;;;;;5.70;2.95;;;11.80;99.90;;;;;;5003224;28;20033;-70
2022/04/19 02:04:59;;;;;;;3.83;3.13;;;11.70;99.90;;;;;;5005481;28;20394;-70
2022/04/19 02:07:25;;;;;;;4.28;3.67;;;11.80;99.90;;;;;;5005238;28;20035;-69
2022/04/19 02:09:54;;;;;;;6.45;3.83;;;11.70;99.90;;;;;;4998323;28;20033;-70
2022/04/19 02:12:20;;;;;;;6.68;3.70;;;11.70;99.90;;;;;;5004038;28;20073;-71
2022/04/19 02:14:46;;;;;;;9.90;3.95;;;11.70;99.90;;;;;;5004802;28;20031;-71
2022/04/19 02:17:12;;;;;;;5.03;3.92;;;11.60;99.90;;;;;;5002712;28;20022;-72
2022/04/19 02:19:39;;;;;;;9.57;4.20;;;11.50;99.90;;;;;;5004134;28;20069;-71
2022/04/19 02:22:06;;;;;;;4.53;3.67;;;11.40;99.90;;;;;;5007674;28;20033;-72
2022/04/19 02:24:34;;;;;;;8.02;3.42;;;11.40;99.90;;;;;;5011746;28;20014;-71
2022/04/19 02:27:01;;;;;;;8.35;3.13;;;11.40;99.90;;;;;;5013392;28;20018;-71
2022/04/19 02:29:27;;;;;;;5.65;4.30;;;11.50;99.90;;;;;;5011953;28;20112;-71
2022/04/19 02:31:53;;;;;;;4.20;3.35;;;11.50;99.90;;;;;;5004702;28;20576;-71
2022/04/19 02:34:19;;;;;;;6.60;3.83;;;11.40;99.90;;;;;;5003321;28;20068;-72
2022/04/19 02:36:46;;;;;;;6.05;4.15;;;11.30;99.90;;;;;;5003916;28;20060;-72
2022/04/19 02:39:12;;;;;;;6.25;4.22;;;11.30;99.90;;;;;;5005037;28;20101;-70
2022/04/19 02:41:38;;;;;;;4.63;3.20;;;11.20;99.90;;;;;;5004084;28;20524;-70
2022/04/19 02:44:08;;;;;;;3.45;2.65;;;11.20;99.90;;;;;;5003389;28;20062;-71
2022/04/19 02:46:35;;;;;;;5.45;3.30;;;11.10;99.90;;;;;;5003949;28;20494;-72
2022/04/19 02:49:04;;;;;;;6.13;3.53;;;11.10;99.90;;;;;;5003353;28;20493;-70
2022/04/19 02:51:35;;;;;;;7.30;4.03;;;11.10;99.90;;;;;;5003507;28;20018;-70
2022/04/19 02:54:01;;;;;;;4.00;3.65;;;11.10;99.90;;;;;;5007405;28;20025;-71
2022/04/19 02:56:27;;;;;;;4.75;3.70;;;11.10;99.90;;;;;;5008556;28;20022;-70
2022/04/19 02:58:53;;;;;;;7.43;3.08;;;11.10;99.90;;;;;;5014309;28;20037;-72
2022/04/19 03:01:18;;;;;;;6.88;3.80;;;11.00;99.90;;;;;;5011222;28;20025;-70
2022/04/19 03:03:45;;;;;;;6.57;3.30;;;11.00;99.90;;;;;;5014789;28;20030;-71
2022/04/19 03:06:10;;;;;;;5.80;3.55;;;11.00;99.90;;;;;;5011195;28;20143;-69
2022/04/19 03:08:36;;;;;;;4.40;3.45;;;11.10;99.90;;;;;;5009979;28;20447;-70
2022/04/19 03:11:02;;;;;;;5.03;3.13;;;11.00;99.90;;;;;;5007935;28;20034;-70
2022/04/19 03:13:29;;;;;;;3.72;3.22;;;11.00;99.90;;;;;;5008218;28;20029;-72
2022/04/19 03:15:55;;;;;;;4.18;3.40;;;10.90;99.90;;;;;;5010982;28;20025;-71
2022/04/19 03:18:21;;;;;;;6.85;3.47;;;10.90;99.90;;;;;;5011263;28;20026;-71
2022/04/19 03:20:47;;;;;;;5.13;3.63;;;10.90;99.90;;;;;;5008789;28;20486;-70
2022/04/19 03:28:45;;;;;;;7.05;4.13;;;10.70;99.90;;;;;;5003135;28;20064;-69
2022/04/19 03:31:14;;;;;;;6.18;3.92;;;10.60;99.90;;;;;;5006843;28;20477;-69
2022/04/19 03:33:40;;;;;;;3.40;3.17;;;10.50;99.90;;;;;;5011083;28;20080;-71
2022/04/19 03:36:10;;;;;;;5.93;3.88;;;10.50;99.90;;;;;;5007439;28;20018;-71
2022/04/19 03:38:35;;;;;;;5.57;3.75;;;10.40;99.90;;;;;;5007854;28;20025;-71
2022/04/19 03:41:02;;;;;;;6.47;3.55;;;10.30;99.90;;;;;;5005505;28;20033;-72
2022/04/19 03:43:28;;;;;;;18.90;3.92;;;10.40;99.90;;;;;;5009022;28;20505;-71
2022/04/19 03:45:54;;;;;;;3.92;3.53;;;10.30;99.90;;;;;;5008360;28;20033;-71
2022/04/19 03:48:20;;;;;;;4.00;2.95;;;10.30;99.90;;;;;;5007617;28;20030;-71
2022/04/19 03:50:45;;;;;;;6.25;3.72;;;10.40;99.90;;;;;;5007888;28;20497;-69
2022/04/19 03:53:11;;;;;;;7.90;3.67;;;10.20;99.90;;;;;;5010393;28;20055;-71
2022/04/19 03:55:37;;;;;;;5.93;2.90;;;10.20;99.90;;;;;;5010898;28;20030;-71
2022/04/19 03:58:03;;;;;;;5.70;3.53;;;10.20;99.90;;;;;;5007627;28;20025;-70
2022/04/19 04:00:30;;;;;;;4.82;2.92;;;10.20;99.90;;;;;;5008100;28;20108;-71
2022/04/19 04:02:56;;;;;;;3.78;3.30;;;10.10;99.90;;;;;;5007948;28;20030;-70
2022/04/19 04:05:24;;;;;;;10.38;3.90;;;10.10;99.90;;;;;;5011296;28;20021;-72
2022/04/19 04:07:55;;;;;;;3.83;3.33;;;10.00;99.90;;;;;;5006832;28;20071;-72
2022/04/19 04:10:21;;;;;;;5.50;4.38;;;9.90;99.90;;;;;;5003721;28;20049;-71
2022/04/19 04:12:47;;;;;;;10.27;4.15;;;9.80;99.90;;;;;;5009706;28;20419;-70
2022/04/19 04:15:12;;;;;;;8.63;3.50;;;9.70;99.90;;;;;;5008366;28;20033;-70
2022/04/19 04:17:38;;;;;;;4.88;4.18;;;9.80;99.90;;;;;;5007412;28;20544;-70
2022/04/19 04:20:05;;;;;;;4.40;3.75;;;9.70;99.90;;;;;;5008942;28;20034;-71
2022/04/19 04:22:31;;;;;;;8.70;4.28;;;9.60;99.90;;;;;;5010157;28;20083;-70
2022/04/19 04:24:56;;;;;;;4.97;4.13;;;9.60;99.90;;;;;;5008543;28;20494;-70
2022/04/19 04:27:22;;;;;;;6.32;4.13;;;9.70;99.90;;;;;;5007442;28;20025;-73
2022/04/19 04:29:48;;;;;;;6.68;4.10;;;9.60;99.90;;;;;;5008884;28;20036;-72
2022/04/19 04:32:17;;;;;;;8.30;3.65;;;9.70;99.90;;;;;;5001512;28;20025;-71
2022/04/19 04:34:42;;;;;;;10.30;4.10;;;9.60;99.90;;;;;;5004413;28;20048;-71
2022/04/19 04:37:08;;;;;;;7.53;4.00;;;9.60;99.90;;;;;;5008562;28;20022;-72
2022/04/19 04:39:34;;;;;;;4.63;3.22;;;9.70;99.90;;;;;;5006207;28;20430;-70
2022/04/19 04:42:01;;;;;;;8.70;4.15;;;9.70;99.90;;;;;;5007305;28;20033;-72
2022/04/19 04:44:27;;;;;;;12.25;3.80;;;9.70;99.90;;;;;;5004067;28;20447;-71
2022/04/19 04:49:39;;;;;;;8.93;3.80;;;9.80;99.90;;;;;;5008051;28;20059;-70
2022/04/19 04:52:09;;;;;;;4.22;3.65;;;9.80;99.90;;;;;;4999142;28;20105;-70
2022/04/19 04:54:36;;;;;;;9.88;4.72;;;9.80;99.90;;;;;;5011183;28;20026;-71
2022/04/19 04:57:04;;;;;;;4.30;3.90;;;9.80;99.90;;;;;;5008071;28;20049;-71
2022/04/19 04:59:30;;;;;;;4.65;3.67;;;9.80;99.90;;;;;;5006567;28;20026;-71
2022/04/19 05:01:57;;;;;;;5.20;4.22;;;9.90;99.90;;;;;;5004413;28;20042;-70
2022/04/19 05:04:23;;;;;;;5.40;4.20;;;10.00;99.90;;;;;;5008258;28;20033;-71
2022/04/19 05:06:48;;;;;;;7.38;4.25;;;10.00;99.90;;;;;;5011251;28;20025;-71
2022/04/19 05:09:14;;;;;;;7.50;4.88;;;10.10;99.90;;;;;;5011870;28;20057;-72
2022/04/19 05:11:40;;;;;;;6.25;3.40;;;10.10;99.90;;;;;;5008623;28;20058;-71
2022/04/19 05:14:07;;;;;;;11.13;4.22;;;10.10;99.90;;;;;;5004085;28;20430;-69
2022/04/19 05:16:45;;;;;;;8.20;4.43;;;10.00;99.90;;;;;;5011413;28;20018;-67
2022/04/19 05:19:29;;;;;;;4.47;3.63;;;10.10;99.90;;;;;;5014343;28;20026;-67
2022/04/19 05:22:01;;;;;;;4.78;3.75;;;10.10;99.90;;;;;;5007412;28;21374;-67
2022/04/19 05:24:33;;;;;;;8.60;3.45;;;10.20;99.90;;;;;;5005240;28;20092;-67
2022/04/19 05:27:00;;;;;;;7.20;4.60;;;10.30;99.90;;;;;;5011238;28;20030;-68
2022/04/19 05:29:26;;;;;;;4.57;4.15;;;10.40;99.90;;;;;;4999292;28;20025;-67
2022/04/19 05:31:55;;;;;;;5.72;4.28;;;10.40;99.90;;;;;;5012492;28;20104;-66
2022/04/19 05:34:21;;;;;;;8.25;4.68;;;10.50;99.90;;;;;;5007974;28;20402;-68
2022/04/19 05:36:47;;;;;;;5.97;4.15;;;10.40;99.90;;;;;;5010979;28;20020;-67
2022/04/19 05:39:12;;;;;;;5.95;4.95;;;10.40;99.90;;;;;;5014086;28;20029;-66
2022/04/19 05:41:57;;;;;;;7.47;4.43;;;10.40;99.90;;;;;;5011945;28;20446;-67
2022/04/19 05:44:32;;;;;;;9.00;4.20;;;10.60;99.90;;;;;;5008172;28;20041;-68
2022/04/19 05:46:58;;;;;;;7.15;4.75;;;10.70;99.90;;;;;;5009215;28;20445;-68
2022/04/19 05:49:36;;;;;;;12.63;4.75;;;10.70;99.90;;;;;;5014897;28;20072;-68
2022/04/19 05:52:03;;;;;;;5.47;3.67;;;10.80;99.90;;;;;;5010692;28;20024;-66
2022/04/19 05:54:29;;;;;;;9.38;4.03;;;10.90;99.90;;;;;;5016220;28;20072;-66
2022/04/19 05:56:54;;;;;;;6.00;4.38;;;11.00;99.90;;;;;;5014905;28;20021;-67
2022/04/19 05:59:21;;;;;;;8.32;4.40;;;11.00;99.90;;;;;;5011364;28;20033;-68
2022/04/19 06:07:15;;;;;;;9.63;4.53;;;11.40;99.90;;;;;;5011299;28;20093;-66
2022/04/19 06:09:40;;;;;;;6.28;3.95;;;11.40;99.90;;;;;;5014187;28;20037;-69
2022/04/19 06:12:07;;;;;;;11.10;4.35;;;11.60;99.90;;;;;;5014354;28;20506;-67
2022/04/19 06:14:32;;;;;;;4.40;4.00;;;11.50;99.90;;;;;;5012895;28;20053;-67
2022/04/19 06:17:05;;;;;;;5.07;3.22;;;11.60;99.90;;;;;;5014227;28;20026;-67
2022/04/19 06:19:33;;;;;;;5.13;2.90;;;11.70;99.90;;;;;;5012335;28;20060;-67
2022/04/19 06:21:59;;;;;;;7.93;4.63;;;11.80;99.90;;;;;;5011027;28;20046;-69
2022/04/19 06:24:25;;;;;;;11.13;3.55;;;11.80;99.90;;;;;;5011359;28;20030;-67
2022/04/19 06:26:51;;;;;;;9.02;4.30;;;11.80;99.90;;;;;;5029585;28;20034;-67
2022/04/19 06:29:17;;;;;;;5.78;4.03;;;12.00;99.90;;;;;;5013393;28;20169;-67
2022/04/19 06:31:43;;;;;;;6.47;4.40;;;12.20;99.90;;;;;;5005867;28;20083;-68
2022/04/19 06:34:09;;;;;;;9.93;5.90;;;12.40;99.90;;;;;;5002558;28;20033;-69
2022/04/19 06:36:35;;;;;;;10.55;4.13;;;12.40;99.90;;;;;;5006995;28;20032;-67
2022/04/19 06:39:02;;;;;;;8.88;5.10;;;12.60;99.90;;;;;;4999267;28;20022;-68
2022/04/19 06:41:27;;;;;;;6.43;3.80;;;12.90;99.90;;;;;;5001869;28;20033;-66
2022/04/19 06:43:57;;;;;;;6.88;4.05;;;13.10;99.90;;;;;;5002204;28;20036;-67
2022/04/19 06:46:26;;;;;;;6.43;3.78;;;13.40;99.90;;;;;;5003072;28;20037;-68
2022/04/19 06:48:56;;;;;;;5.82;3.65;;;13.80;99.90;;;;;;5007299;28;21464;-66
2022/04/19 06:51:23;;;;;;;7.05;3.40;;;14.00;99.90;;;;;;5011481;28;20021;-67
2022/04/19 06:53:49;;;;;;;13.10;3.55;;;13.90;99.90;;;;;;5009156;28;20136;-67
2022/04/19 06:56:21;;;;;;;9.20;3.75;;;14.00;99.90;;;;;;5010800;28;20026;-67
2022/04/19 06:58:49;;;;;;;4.18;3.15;;;13.90;99.90;;;;;;5011021;28;20028;-68
2022/04/19 07:01:15;;;;;;;6.72;3.22;;;13.90;99.90;;;;;;5008396;28;20133;-67
2022/04/19 07:03:40;;;;;;;3.80;2.60;;;13.90;99.90;;;;;;5004286;28;20026;-67
2022/04/19 07:06:06;;;;;;;10.43;3.63;;;14.00;99.90;;;;;;5009995;28;20030;-66
2022/04/19 07:08:33;;;;;;;5.97;2.78;;;13.90;99.90;;;;;;5016576;28;20050;-66
2022/04/19 07:11:00;;;;;;;6.32;4.05;;;13.70;99.90;;;;;;5001536;28;20568;-66
2022/04/19 07:13:27;;;;;;;5.30;3.10;;;13.70;99.90;;;;;;5008576;28;20022;-69
2022/04/19 07:15:53;;;;;;;6.47;4.05;;;13.70;99.90;;;;;;5012892;28;20069;-70
2022/04/19 07:18:23;;;;;;;8.45;4.18;;;13.70;99.90;;;;;;5013202;28;20018;-67
2022/04/19 07:26:37;;;;;;;7.63;2.92;;;13.90;99.90;;;;;;5010971;28;20118;-68
2022/04/19 07:29:10;;;;;;;10.32;3.25;;;13.90;99.90;;;;;;5022111;28;20034;-68
2022/04/19 07:31:40;;;;;;;13.07;5.72;;;13.90;99.90;;;;;;5005219;28;20026;-67
2022/04/19 07:34:06;;;;;;;7.88;4.00;;;13.90;99.90;;;;;;5015258;28;20017;-66
2022/04/19 07:36:35;;;;;;;11.55;3.67;;;14.10;99.90;;;;;;5023619;28;20028;-68
2022/04/19 07:39:03;;;;;;;4.22;3.55;;;14.10;99.90;;;;;;5030282;28;20009;-71
2022/04/19 07:41:30;;;;;;;12.93;3.80;;;14.10;99.90;;;;;;5024778;28;20030;-71
2022/04/19 07:43:56;;;;;;;5.97;3.33;;;14.20;99.90;;;;;;5023930;28;20026;-69
2022/04/19 07:46:22;;;;;;;3.28;2.20;;;14.20;99.90;;;;;;5023402;28;20064;-69
2022/04/19 07:48:51;;;;;;;5.65;4.40;;;14.20;99.90;;;;;;5011391;28;20046;-68
2022/04/19 07:51:17;;;;;;;3.65;3.35;;;14.20;99.90;;;;;;5007744;28;20019;-68
2022/04/19 07:53:43;;;;;;;4.25;3.65;;;14.20;99.90;;;;;;5009636;28;20030;-68
2022/04/19 07:56:09;;;;;;;5.40;2.83;;;14.20;99.90;;;;;;5013974;28;20072;-68
2022/04/19 07:58:35;;;;;;;7.18;4.53;;;14.40;99.90;;;;;;5026854;28;20508;-71
2022/04/19 08:01:01;;;;;;;4.07;2.80;;;14.40;99.90;;;;;;5023214;28;20033;-69
2022/04/19 08:03:27;;;;;;;3.58;2.72;;;14.50;99.90;;;;;;5017764;28;20044;-67
2022/04/19 08:05:53;;;;;;;4.40;2.83;;;14.30;99.90;;;;;;5011819;28;20046;-67
2022/04/19 08:08:21;;;;;;;3.20;2.63;;;14.30;99.90;;;;;;5015143;28;20079;-68
2022/04/19 08:10:47;;;;;;;3.95;2.35;;;14.30;99.90;;;;;;5021371;28;20506;-67
2022/04/19 08:13:13;;;;;;;2.60;2.25;;;14.50;99.90;;;;;;5013970;28;20494;-68
2022/04/19 08:15:40;;;;;;;4.05;2.90;;;14.60;99.90;;;;;;5016088;28;20216;-69
2022/04/19 08:18:06;;;;;;;4.30;2.47;;;14.80;99.90;;;;;;5021639;28;20521;-70
2022/04/19 08:20:32;;;;;;;2.53;2.33;;;14.80;99.90;;;;;;5020709;28;20038;-69
2022/04/19 08:22:58;;;;;;;5.82;3.17;;;14.80;99.90;;;;;;5010886;28;20060;-71
2022/04/19 08:25:24;;;;;;;3.67;3.35;;;14.80;99.90;;;;;;5010454;28;20026;-70
2022/04/19 08:27:51;;;;;;;5.07;2.92;;;14.70;99.80;;;;;;5018714;28;20022;-71
2022/04/19 08:30:18;;;;;;;3.20;2.90;;;14.80;99.90;;;;;;5014245;28;20026;-70
2022/04/19 08:32:45;;;;;;;4.85;3.42;;;14.70;99.90;;;;;;5016964;28;20049;-71
2022/04/19 08:35:12;;;;;;;3.55;2.50;;;14.80;99.90;;;;;;5008886;28;20516;-70
2022/04/19 08:37:38;;;;;;;5.30;3.50;;;14.90;99.90;;;;;;5007693;28;20615;-71
2022/04/19 08:40:07;;;;;;;3.78;2.67;;;14.90;99.90;;;;;;5005752;28;20042;-73
2022/04/19 08:42:38;;;;;;;6.60;2.88;;;15.00;99.90;;;;;;5004254;28;20030;-70
2022/04/19 08:45:05;;;;;;;3.33;2.55;;;15.20;99.90;;;;;;5006912;28;20073;-70
2022/04/19 08:47:32;;;;;;;3.20;2.78;;;15.30;99.90;;;;;;5010603;28;20036;-73
2022/04/19 08:50:04;;;;;;;7.65;2.83;;;15.40;99.70;;;;;;5009606;28;20121;-72
2022/04/19 08:52:31;;;;;;;6.13;3.03;;;15.50;99.50;;;;;;5014274;28;20137;-72
2022/04/19 08:57:41;;;;;;;4.15;3.03;;;15.80;99.50;;;;;;5021144;28;20053;-72
2022/04/19 09:00:08;;;;;;;4.25;2.78;;;16.10;98.80;;;;;;5029607;28;20026;-72
2022/04/19 09:02:37;;;;;;;4.90;2.90;;;16.10;98.20;;;;;;5009993;28;20041;-72
2022/04/19 09:05:21;;;;;;;4.13;3.13;;;16.10;98.30;;;;;;5013171;28;20026;-74
2022/04/19 09:07:48;;;;;;;6.47;3.28;;;16.10;98.30;;;;;;5015997;28;20026;-72
2022/04/19 09:10:24;;;;;;;4.47;2.67;;;16.00;98.30;;;;;;5013873;28;20030;-71
2022/04/19 09:13:00;;;;;;;4.05;3.15;;;15.90;98.30;;;;;;5010899;28;20022;-71
2022/04/19 09:15:43;;;;;;;5.97;2.78;;;15.80;98.20;;;;;;5007430;28;20029;-72
2022/04/19 09:18:29;;;;;;;5.22;3.22;;;15.60;98.10;;;;;;5008318;28;20064;-73
2022/04/19 09:20:56;;;;;;;7.43;2.92;;;15.60;98.70;;;;;;5011715;28;20449;-75
2022/04/19 09:23:23;;;;;;;3.60;2.90;;;15.70;99.10;;;;;;5011610;28;20416;-73
2022/04/19 09:25:57;;;;;;;4.95;2.78;;;15.80;98.70;;;;;;5010469;28;20423;-72
2022/04/19 09:28:25;;;;;;;6.85;2.97;;;15.80;98.40;;;;;;5011783;28;20036;-71
2022/04/19 09:30:56;;;;;;;3.65;2.80;;;15.90;98.60;;;;;;5009551;28;20474;-71
2022/04/19 09:33:26;;;;;;;4.70;3.10;;;15.80;98.00;;;;;;5015800;28;20123;-72
2022/04/19 09:36:02;;;;;;;9.65;3.10;;;15.80;98.50;;;;;;5013502;28;20108;-72
2022/04/19 09:38:42;;;;;;;2.83;2.60;;;15.80;98.20;;;;;;5010654;28;20018;-72
2022/04/19 09:41:14;;;;;;;5.78;3.38;;;15.80;97.70;;;;;;5013438;28;20061;-70
2022/04/19 09:43:40;;;;;;;3.15;2.85;;;15.60;97.70;;;;;;5011538;28;20022;-69
2022/04/19 09:46:07;;;;;;;4.70;3.45;;;15.70;97.60;;;;;;5012890;28;20077;-70
2022/04/19 09:48:39;;;;;;;3.90;3.15;;;15.70;97.70;;;;;;5012370;28;20109;-71
2022/04/19 09:51:13;;;;;;;3.10;2.80;;;15.60;98.60;;;;;;5012210;28;20018;-69
2022/04/19 09:53:49;;;;;;;11.32;3.85;;;15.70;97.70;;;;;;5013634;28;20022;-70
2022/04/19 09:56:15;;;;;;;6.03;3.70;;;15.60;97.70;;;;;;5009470;28;20097;-73
2022/04/19 09:58:44;;;;;;;5.93;3.67;;;15.60;98.20;;;;;;5013783;28;20029;-73
2022/04/19 10:08:10;;;;;;;5.65;3.80;;;15.70;98.60;;;;;;5008968;28;20041;-72
2022/04/19 10:09:34;;;;;;;4.38;3.60;;;15.50;97.70;;;;;;5008732;28;20454;-74
2022/04/19 10:12:01;;;;;;;3.67;3.20;;;15.50;97.70;;;;;;5006881;28;20525;-71
2022/04/19 10:14:30;;;;;;;3.72;3.13;;;15.60;98.20;;;;;;5008195;28;20044;-70
2022/04/19 10:16:58;;;;;;;7.72;3.72;;;15.70;97.70;;;;;;5011389;28;20117;-71
2022/04/19 10:19:25;;;;;;;3.65;2.90;;;15.70;97.60;;;;;;5012476;28;20029;-71
2022/04/19 10:21:52;;;;;;;4.55;3.33;;;15.70;97.80;;;;;;5012374;28;20045;-74
2022/04/19 10:24:18;;;;;;;4.82;3.33;;;15.90;97.80;;;;;;5009728;28;20061;-73
2022/04/19 10:26:48;;;;;;;3.50;3.15;;;16.00;97.70;;;;;;5011186;28;20054;-74
2022/04/19 10:29:29;;;;;;;4.00;3.10;;;15.90;97.60;;;;;;5010898;28;20041;-73
2022/04/19 10:32:10;;;;;;;5.78;3.60;;;15.80;97.90;;;;;;5013651;28;20065;-76
2022/04/19 10:34:43;;;;;;;4.85;3.03;;;15.70;97.50;;;;;;5005834;28;20077;-72
2022/04/19 10:37:15;;;;;;;6.43;3.40;;;15.80;98.70;;;;;;5012221;28;20080;-71
2022/04/19 10:40:12;;;;;;;3.38;3.08;;;16.00;97.90;;;;;;5006644;28;20030;-73
2022/04/19 10:42:42;;;;;;;14.05;3.47;;;16.10;97.60;;;;;;5001896;28;20049;-71
2022/04/19 10:45:14;;;;;;;3.20;2.85;;;16.10;98.00;;;;;;5001099;28;20041;-72
2022/04/19 10:47:54;;;;;;;10.10;3.25;;;16.10;98.00;;;;;;5005587;28;20030;-73
2022/04/19 10:50:40;;;;;;;4.82;3.25;;;16.10;98.20;;;;;;5009320;28;20032;-72
2022/04/19 10:53:11;;;;;;;5.15;3.10;;;16.00;98.60;;;;;;5004686;28;20387;-71
2022/04/19 10:55:56;;;;;;;3.80;2.92;;;16.10;98.50;;;;;;5002762;28;20397;-72
2022/04/19 10:58:41;;;;;;;4.30;2.38;;;15.90;99.00;;;;;;5004458;28;20532;-71
2022/04/19 11:01:29;;;;;;;8.48;3.53;;;15.80;99.50;;;;;;5005867;28;20030;-71
2022/04/19 11:03:56;;;;;;;8.73;3.20;;;15.80;98.80;;;;;;5002694;28;20022;-72
2022/04/19 11:06:37;;;;;;;6.90;3.65;;;15.80;99.20;;;;;;5006923;28;20033;-74
2022/04/19 11:09:13;;;;;;;4.60;3.90;;;15.90;99.10;;;;;;5002622;28;20034;-70
2022/04/19 11:11:47;;;;;;;3.78;3.22;;;16.00;98.80;;;;;;5003928;28;20045;-73
2022/04/19 11:14:20;;;;;;;7.93;4.10;;;15.90;99.00;;;;;;5006237;28;20022;-72
2022/04/19 11:16:51;;;;;;;5.03;3.13;;;15.80;99.60;;;;;;5006106;28;20057;-72
2022/04/19 11:19:26;;;;;;;4.25;2.83;;;15.80;99.90;;;;;;5008562;28;20579;-72
2022/04/19 11:22:11;;;;;;;5.38;3.03;;;15.50;99.70;;;;;;5007913;28;20069;-72
2022/04/19 11:25:11;;;;;;;6.82;3.35;;;15.50;99.70;;;;;;5005876;28;20068;-72
2022/04/19 11:28:09;;;;;;;;;;;;;;;;;;;;;
2022/04/19 11:30:52;;;;;;;4.95;3.75;;;15.50;99.90;;;;;;5005758;28;20490;-73
2022/04/19 11:33:38;;;;;;;6.53;3.00;;;15.50;99.90;;;;;;5004168;28;20176;-72
2022/04/19 11:36:12;;;;;;;4.10;3.67;;;15.50;99.90;;;;;;5008632;28;20517;-72
2022/04/19 11:38:52;;;;;;;5.15;3.92;;;15.70;99.90;;;;;;5005331;28;20033;-72
2022/04/19 11:47:45;;;;;;;3.47;2.95;;;15.80;99.90;;;;;;5003963;28;20393;-71
2022/04/19 11:50:33;;;;;;;3.58;3.28;;;15.70;99.90;;;;;;5009462;28;20022;-71
2022/04/19 11:53:00;;;;;;;4.93;3.00;;;15.60;99.90;;;;;;5007127;28;20018;-71
2022/04/19 11:55:27;;;;;;;4.35;3.95;;;15.60;99.90;;;;;;5004737;28;20128;-74
2022/04/19 11:58:09;;;;;;;4.03;3.25;;;15.50;99.90;;;;;;5005761;28;20030;-73
2022/04/19 12:00:35;;;;;;;7.45;4.13;;;15.40;99.90;;;;;;5006091;28;20040;-71
2022/04/19 12:03:23;;;;;;;6.15;3.25;;;15.20;99.90;;;;;;5005703;28;20070;-73
2022/04/19 12:05:49;;;;;;;4.38;3.97;;;15.10;99.90;;;;;;4999278;28;20112;-73
2022/04/19 12:08:55;;;;;;;7.05;3.60;;;14.80;99.90;;;;;;5000573;28;20950;-74
2022/04/19 12:11:24;;;;;;;6.68;2.97;;;14.50;99.90;;;;;;5005632;28;20111;-73
2022/04/19 12:13:53;;;;;;;3.20;2.90;;;14.30;99.90;;;;;;5005425;28;20022;-73
2022/04/19 12:16:34;;;;;;;8.82;3.90;;;14.40;99.90;;;;;;5009004;28;20034;-73
2022/04/19 12:19:08;;;;;;;4.82;4.03;;;14.60;99.90;;;;;;5006063;28;20492;-72
2022/04/19 12:21:40;;;;;;;4.28;3.65;;;14.60;99.90;;;;;;5010194;28;20363;-72
2022/04/19 12:24:08;;;;;;;9.85;3.47;;;14.70;99.90;;;;;;5009644;28;20033;-71
2022/04/19 12:26:35;;;;;;;4.63;3.13;;;14.90;99.90;;;;;;5010450;28;20439;-70
2022/04/19 12:29:14;;;;;;;3.67;2.63;;;15.10;99.90;;;;;;5001584;28;20032;-73
2022/04/19 12:31:44;;;;;;;7.97;3.50;;;15.20;99.90;;;;;;5009774;28;20382;-70
2022/04/19 12:39:39;;;;;;;6.68;3.38;;;15.50;99.90;;;;;;5020961;28;20095;-72
2022/04/19 12:53:36;;;;;;;3.90;3.38;;;15.80;99.90;;;;;;5012913;28;20541;-72
2022/04/19 13:12:39;;;;;;;3.70;2.47;;;15.90;99.90;;;;;;5003792;28;20536;-72
2022/04/19 13:37:10;;;;;;;5.43;3.00;;;16.20;99.90;;;;;;5017130;28;20028;-71
2022/04/19 13:50:35;;;;;;;3.67;3.25;;;16.20;99.90;;;;;;5010638;28;20033;-69
2022/04/19 14:14:56;;;;;;;7.85;3.00;;;15.20;99.90;;;;;;5012539;28;20131;-70
2022/04/19 14:22:51;;;;;;;4.03;3.60;;;15.40;99.90;;;;;;5015387;28;20064;-72
2022/04/19 14:33:29;;;;;;;7.75;3.90;;;14.60;99.90;;;;;;5013118;28;20109;-72
2022/04/19 14:44:09;;;;;;;5.30;4.00;;;14.70;99.90;;;;;;5011648;28;20060;-73
2022/04/19 14:49:19;;;;;;;10.45;3.88;;;14.90;99.90;;;;;;5013472;28;20167;-71
2022/04/19 14:57:14;;;;;;;4.05;3.50;;;14.30;99.90;;;;;;5011460;28;20060;-72
2022/04/19 15:05:09;;;;;;;11.00;4.72;;;14.10;99.90;;;;;;5008313;28;20032;-72
2022/04/19 15:24:17;;;;;;;11.82;4.40;;;14.20;99.90;;;;;;5008414;28;20559;-73
2022/04/19 15:29:31;;;;;;;4.72;3.60;;;14.20;99.90;;;;;;5003500;28;20033;-73
2022/04/19 15:48:27;;;;;;;6.45;3.30;;;14.20;99.90;;;;;;5009722;28;20139;-72
2022/04/19 15:56:40;;;;;;;6.22;4.00;;;14.30;99.90;;;;;;5008388;28;20563;-74
2022/04/19 16:01:52;;;;;;;9.25;4.18;;;14.30;99.90;;;;;;5012921;28;20044;-75
2022/04/19 16:04:18;;;;;;;5.88;3.80;;;14.30;99.90;;;;;;5011373;28;20034;-72
2022/04/19 16:06:43;;;;;;;9.40;3.95;;;14.30;99.90;;;;;;5012060;28;20022;-74
2022/04/19 16:09:09;;;;;;;8.45;3.70;;;14.20;99.90;;;;;;5011667;28;20022;-71
2022/04/19 16:11:35;;;;;;;9.95;3.85;;;14.20;99.90;;;;;;5015682;28;20553;-70
2022/04/19 16:14:22;;;;;;;14.95;4.90;;;14.20;99.90;;;;;;5009899;28;20093;-71
2022/04/19 16:25:01;;;;;;;10.50;4.07;;;14.20;99.90;;;;;;5005833;28;20052;-72
2022/04/19 16:27:32;;;;;;;11.13;3.95;;;14.20;99.90;;;;;;5009040;28;20026;-72